Time;durP1;ratioP1;P1;durP2;ratioP2;P2;SDS_P1;SDS_P2;PMS_P1;PMS_P2;Temp;Humidity;BMP_temperature;BMP_pressure;BME280_temperature;BME280_humidity;BME280_pressure;Samples;Min_cycle;Max_cycle;Signal;HPM_P1;HPM_P2
2022/11/21 00:00:18;;;;;;;67.05;27.90;;;;;;;-2.13;100.00;99791.67;5054821;56;1140852;-66
2022/11/21 00:05:27;;;;;;;60.63;25.60;;;;;;;-2.10;100.00;99794.16;5055604;56;1140934;-64
2022/11/21 00:10:33;;;;;;;58.07;24.47;;;;;;;-2.17;100.00;99781.06;5051891;56;1140997;-67
2022/11/21 00:15:39;;;;;;;64.60;24.87;;;;;;;-2.13;100.00;99787.34;5135897;56;1140976;-69
2022/11/21 00:20:45;;;;;;;57.65;25.10;;;;;;;-2.16;100.00;99788.77;5169032;56;1141173;-67
2022/11/21 00:25:51;;;;;;;58.73;26.40;;;;;;;-2.15;100.00;99792.21;5137121;56;1140991;-66
2022/11/21 00:30:58;;;;;;;128.60;45.15;;;;;;;-2.27;100.00;99792.64;5148420;56;1140938;-68
2022/11/21 00:36:09;;;;;;;86.17;36.03;;;;;;;-2.25;100.00;99780.48;5144075;56;1143064;-68
2022/11/21 00:41:15;;;;;;;70.73;26.53;;;;;;;-2.25;100.00;99776.59;5132368;56;1141327;-67
2022/11/21 00:46:21;;;;;;;52.70;23.60;;;;;;;-2.20;100.00;99785.05;5132459;56;1140967;-65
2022/11/21 00:51:27;;;;;;;60.40;24.30;;;;;;;-2.39;100.00;99795.23;5132445;56;1140831;-65
2022/11/21 00:56:32;;;;;;;58.38;25.12;;;;;;;-2.55;100.00;99796.23;5132222;56;1141152;-64
2022/11/21 01:01:39;;;;;;;50.87;23.30;;;;;;;-2.70;100.00;99797.23;5132549;56;1141066;-63
2022/11/21 01:06:44;;;;;;;61.10;27.03;;;;;;;-2.64;100.00;99797.03;5132704;56;1140924;-61
2022/11/21 01:11:50;;;;;;;56.53;24.13;;;;;;;-2.54;100.00;99808.73;5148412;56;1140997;-68
2022/11/21 01:16:55;;;;;;;53.50;23.30;;;;;;;-2.63;100.00;99795.68;5116569;56;1141027;-67
2022/11/21 01:22:01;;;;;;;60.73;25.97;;;;;;;-2.74;100.00;99792.60;5113042;56;1140868;-67
2022/11/21 01:27:06;;;;;;;60.20;26.13;;;;;;;-2.66;100.00;99799.66;5135063;56;1140847;-67
2022/11/21 01:32:12;;;;;;;67.07;27.87;;;;;;;-2.55;100.00;99803.16;5039294;56;1140971;-66
2022/11/21 01:37:18;;;;;;;69.07;30.57;;;;;;;-2.45;100.00;99804.54;5073144;55;1140940;-65
2022/11/21 01:42:23;;;;;;;56.17;24.57;;;;;;;-2.41;100.00;99800.07;5060269;56;1141167;-64
2022/11/21 01:47:29;;;;;;;60.10;25.40;;;;;;;-2.46;100.00;99794.23;5054831;57;1141403;-66
2022/11/21 01:52:35;;;;;;;55.67;25.47;;;;;;;-2.52;100.00;99802.61;5054920;57;1141099;-63
2022/11/21 01:57:47;;;;;;;59.73;26.07;;;;;;;-2.55;100.00;99797.98;5054787;57;1140873;-65
2022/11/21 02:02:59;;;;;;;51.68;22.27;;;;;;;-2.58;100.00;99799.38;5054882;57;1140913;-66
2022/11/21 02:08:10;;;;;;;52.40;22.90;;;;;;;-2.59;100.00;99796.39;5035718;56;1141184;-67
2022/11/21 02:13:16;;;;;;;58.70;27.60;;;;;;;-2.64;100.00;99779.75;5087550;56;1141071;-64
2022/11/21 02:18:22;;;;;;;58.17;24.77;;;;;;;-2.67;100.00;99783.73;5067673;56;1141211;-62
2022/11/21 02:23:35;;;;;;;49.95;24.32;;;;;;;-2.66;100.00;99780.25;5149567;56;1140895;-66
2022/11/21 02:28:42;;;;;;;51.43;24.37;;;;;;;-2.64;100.00;99773.73;5151097;56;1140680;-61
2022/11/21 02:33:48;;;;;;;58.17;24.20;;;;;;;-2.72;100.00;99771.41;5153474;56;1140916;-65
2022/11/21 02:38:55;;;;;;;52.03;24.00;;;;;;;-2.65;100.00;99775.47;5126937;56;1147726;-64
2022/11/21 02:44:08;;;;;;;50.05;22.93;;;;;;;-2.66;100.00;99775.08;5123112;56;1140856;-69
2022/11/21 02:49:15;;;;;;;50.30;22.17;;;;;;;-2.69;100.00;99777.77;5123595;56;1140774;-65
2022/11/21 02:54:20;;;;;;;55.92;21.70;;;;;;;-2.69;100.00;99771.30;5123378;56;1140804;-65
2022/11/21 02:59:26;;;;;;;54.53;24.83;;;;;;;-2.61;100.00;99766.71;5123446;56;1140840;-63
2022/11/21 03:04:32;;;;;;;57.10;25.63;;;;;;;-2.62;100.00;99765.02;5123372;56;1141005;-69
2022/11/21 03:09:37;;;;;;;51.40;25.63;;;;;;;-2.56;100.00;99763.93;5137671;55;1141033;-68
2022/11/21 03:14:43;;;;;;;55.08;22.25;;;;;;;-2.59;100.00;99759.70;5148318;55;1140853;-67
2022/11/21 03:19:49;;;;;;;59.37;24.33;;;;;;;-2.57;100.00;99750.14;5114810;56;1140930;-68
2022/11/21 03:24:55;;;;;;;51.18;23.73;;;;;;;-2.53;100.00;99753.47;5153240;56;1141105;-64
2022/11/21 03:30:01;;;;;;;55.80;23.47;;;;;;;-2.52;100.00;99745.66;5152875;56;1140879;-65
2022/11/21 03:35:07;;;;;;;52.17;22.95;;;;;;;-2.54;100.00;99740.13;5151854;56;1140979;-66
2022/11/21 03:40:13;;;;;;;62.17;27.20;;;;;;;-2.60;100.00;99737.34;5127554;55;1140966;-67
2022/11/21 03:45:19;;;;;;;61.77;25.07;;;;;;;-2.65;100.00;99733.22;5122479;55;1140936;-63
2022/11/21 03:50:25;;;;;;;56.73;25.17;;;;;;;-2.66;100.00;99730.23;5132735;55;1140931;-68
2022/11/21 03:55:31;;;;;;;53.57;23.37;;;;;;;-2.72;100.00;99731.29;5132462;55;1140768;-67
2022/11/21 04:00:37;;;;;;;53.10;24.23;;;;;;;-2.68;100.00;99727.70;5097049;56;1141375;-65
2022/11/21 04:05:44;;;;;;;56.00;23.75;;;;;;;-2.63;100.00;99710.72;5132852;56;1140909;-67
2022/11/21 04:10:53;;;;;;;62.23;24.72;;;;;;;-2.63;100.00;99698.63;5147260;56;1141316;-64
2022/11/21 04:15:58;;;;;;;60.80;25.67;;;;;;;-2.61;100.00;99693.39;5152875;56;1141230;-68
2022/11/21 04:21:08;;;;;;;54.25;24.57;;;;;;;-2.63;100.00;99697.78;5104798;55;1140830;-63
2022/11/21 04:26:14;;;;;;;55.03;23.83;;;;;;;-2.62;100.00;99704.64;5054987;57;1141151;-65
2022/11/21 04:31:22;;;;;;;52.00;24.57;;;;;;;-2.58;100.00;99700.56;5054349;57;1141007;-67
2022/11/21 04:36:28;;;;;;;59.07;26.17;;;;;;;-2.55;100.00;99693.98;5054684;55;1140983;-62
2022/11/21 04:41:33;;;;;;;53.93;22.67;;;;;;;-2.54;100.00;99687.91;5055363;56;1140955;-66
2022/11/21 04:46:39;;;;;;;57.67;23.85;;;;;;;-2.49;100.00;99678.23;5055479;56;1141109;-64
2022/11/21 04:51:44;;;;;;;49.83;23.57;;;;;;;-2.49;100.00;99678.23;5055540;56;1140951;-65
2022/11/21 04:56:51;;;;;;;55.13;25.57;;;;;;;-2.49;100.00;99671.77;5046220;56;1140897;-66
2022/11/21 05:01:57;;;;;;;48.48;24.27;;;;;;;-2.49;100.00;99668.33;4915222;57;1141026;-69
2022/11/21 05:07:02;;;;;;;53.42;24.50;;;;;;;-2.49;100.00;99667.88;5067035;56;1141218;-65
2022/11/21 05:17:34;;;;;;;55.30;23.00;;;;;;;-2.45;100.00;99654.83;5068507;55;1140795;-67
2022/11/21 05:22:40;;;;;;;59.53;25.30;;;;;;;-2.50;100.00;99636.42;5074438;55;1140997;-63
2022/11/21 05:27:46;;;;;;;52.37;25.90;;;;;;;-2.52;100.00;99629.61;5118889;55;1140941;-65
2022/11/21 05:32:52;;;;;;;67.97;31.77;;;;;;;-2.54;100.00;99629.67;5091001;55;1140896;-67
2022/11/21 05:37:59;;;;;;;63.78;31.07;;;;;;;-2.49;100.00;99631.64;5130730;56;1140862;-64
2022/11/21 05:48:28;;;;;;;63.07;27.77;;;;;;;-2.40;100.00;99622.66;5083992;55;1140812;-65
2022/11/21 05:53:34;;;;;;;60.47;26.57;;;;;;;-2.34;100.00;99624.17;5049553;57;1141064;-69
2022/11/21 05:58:41;;;;;;;65.42;28.00;;;;;;;-2.31;100.00;99623.61;5049295;57;1141006;-68
2022/11/21 06:03:47;;;;;;;60.83;25.73;;;;;;;-2.28;100.00;99612.27;5052202;56;1141040;-69
2022/11/21 06:08:52;;;;;;;55.80;26.30;;;;;;;-2.28;100.00;99618.28;5113291;56;1141232;-66
2022/11/21 06:13:59;;;;;;;56.07;25.47;;;;;;;-2.29;100.00;99602.35;5103527;56;1141507;-69
2022/11/21 06:19:04;;;;;;;54.82;26.28;;;;;;;-2.23;100.00;99593.05;5114788;56;1141073;-67
2022/11/21 06:24:11;;;;;;;54.37;24.93;;;;;;;-2.20;100.00;99593.39;5129046;55;1141080;-65
2022/11/21 06:29:21;;;;;;;59.87;27.47;;;;;;;-2.17;100.00;99605.77;5130592;55;1140883;-65
2022/11/21 06:34:27;;;;;;;51.88;25.60;;;;;;;-2.14;100.00;99606.92;5130592;56;1140966;-67
2022/11/21 06:39:33;;;;;;;59.27;26.23;;;;;;;-2.07;100.00;99601.05;5080603;56;1140781;-67
2022/11/21 06:44:39;;;;;;;58.08;24.45;;;;;;;-2.02;100.00;99607.34;5033366;56;1140857;-66
2022/11/21 06:49:45;;;;;;;56.37;23.73;;;;;;;-2.00;100.00;99612.86;5134081;56;1140864;-65
2022/11/21 06:54:51;;;;;;;56.42;24.67;;;;;;;-1.99;100.00;99616.30;5124993;55;1140803;-67
2022/11/21 06:59:56;;;;;;;49.03;22.63;;;;;;;-1.97;100.00;99626.12;5130830;56;1140771;-65
2022/11/21 07:05:02;;;;;;;46.80;21.10;;;;;;;-1.99;100.00;99617.14;5138504;56;1140891;-66
2022/11/21 07:10:09;;;;;;;48.13;23.37;;;;;;;-1.99;100.00;99622.77;5138412;55;1140982;-69
2022/11/21 07:15:14;;;;;;;65.23;29.53;;;;;;;-1.98;100.00;99623.98;5138102;56;1140889;-67
2022/11/21 07:20:21;;;;;;;71.30;30.30;;;;;;;-1.99;100.00;99618.89;5120604;55;1140722;-65
2022/11/21 07:25:26;;;;;;;69.70;31.33;;;;;;;-1.94;100.00;99632.02;5133891;56;1140834;-64
2022/11/21 07:30:32;;;;;;;61.80;27.80;;;;;;;-1.94;100.00;99633.32;5149059;56;1140815;-67
2022/11/21 07:35:38;;;;;;;89.83;35.83;;;;;;;-1.93;100.00;99631.57;5147329;55;1140948;-65
2022/11/21 07:40:44;;;;;;;80.40;33.60;;;;;;;-1.96;100.00;99620.87;5154487;55;1140939;-69
2022/11/21 07:45:50;;;;;;;65.67;30.87;;;;;;;-1.88;100.00;99614.94;5154333;55;1140784;-68
2022/11/21 07:50:56;;;;;;;80.17;34.07;;;;;;;-1.88;100.00;99614.94;5154540;55;1140754;-68
2022/11/21 07:56:03;;;;;;;91.32;36.63;;;;;;;-1.86;100.00;99609.70;5154390;55;1140864;-66
2022/11/21 08:01:09;;;;;;;76.13;34.53;;;;;;;-1.83;100.00;99606.95;5069117;57;1140873;-68
2022/11/21 08:06:15;;;;;;;79.50;33.53;;;;;;;-1.86;100.00;99600.17;5068909;57;1141002;-68
2022/11/21 08:11:21;;;;;;;68.40;31.17;;;;;;;-1.83;100.00;99601.77;5130443;56;1140800;-69
2022/11/21 08:16:31;;;;;;;69.62;32.58;;;;;;;-1.84;100.00;99598.82;5168319;55;1140953;-70
2022/11/21 08:21:35;;;;;;;68.85;31.73;;;;;;;-1.85;100.00;99602.31;5149919;56;1141154;-65
2022/11/21 08:26:41;;;;;;;69.87;30.48;;;;;;;-1.88;100.00;99590.33;5154457;56;1140976;-68
2022/11/21 08:31:47;;;;;;;71.07;33.92;;;;;;;-1.81;100.00;99593.03;5124237;56;1141068;-69
2022/11/21 08:36:53;;;;;;;76.97;30.03;;;;;;;-1.79;100.00;99596.41;5086679;56;1140845;-67
2022/11/21 08:42:04;;;;;;;68.93;30.80;;;;;;;-1.76;100.00;99601.92;5136883;56;1141270;-70
2022/11/21 08:47:11;;;;;;;62.63;30.80;;;;;;;-1.69;100.00;99607.70;5139592;56;1141086;-67
2022/11/21 08:52:17;;;;;;;65.67;30.13;;;;;;;-1.64;100.00;99604.44;5081801;56;1140922;-66
2022/11/21 08:57:23;;;;;;;55.30;22.67;;;;;;;-1.61;100.00;99603.86;5134007;56;1141061;-65
2022/11/21 09:02:29;;;;;;;94.50;47.47;;;;;;;-1.63;100.00;99595.76;5048290;57;1140998;-68
2022/11/21 09:07:35;;;;;;;90.87;41.17;;;;;;;-1.58;100.00;99595.96;5134374;56;1140868;-68
2022/11/21 09:12:40;;;;;;;66.03;30.03;;;;;;;-1.53;100.00;99592.70;5138422;56;1141204;-65
2022/11/21 09:18:04;;;;;;;70.10;31.75;;;;;;;-1.49;100.00;99603.78;5072684;56;1140831;-66
2022/11/21 09:23:13;;;;;;;62.40;29.67;;;;;;;-1.50;100.00;99606.83;5126844;55;1140996;-64
2022/11/21 09:28:19;;;;;;;55.47;27.23;;;;;;;-1.45;100.00;99605.34;5129012;56;1140889;-64
2022/11/21 09:33:25;;;;;;;61.00;30.80;;;;;;;-1.46;100.00;99595.43;5145075;56;1141052;-66
2022/11/21 09:38:31;;;;;;;90.33;48.47;;;;;;;-1.40;100.00;99602.56;5152119;56;1140998;-67
2022/11/21 09:43:44;;;;;;;83.50;40.67;;;;;;;-1.40;100.00;99593.48;5151832;56;1141026;-68
2022/11/21 09:48:59;;;;;;;76.33;35.40;;;;;;;-1.35;100.00;99591.52;5131408;55;1140926;-67
2022/11/21 09:54:21;;;;;;;64.35;29.32;;;;;;;-1.36;100.00;99582.05;5153494;55;1140853;-69
2022/11/21 09:59:38;;;;;;;61.92;27.02;;;;;;;-1.35;100.00;99583.73;5154451;55;1140939;-63
2022/11/21 10:04:47;;;;;;;60.17;26.40;;;;;;;-1.37;100.00;99581.20;5154396;55;1140980;-69
2022/11/21 10:10:16;;;;;;;60.03;26.63;;;;;;;-1.36;100.00;99581.59;5153292;55;1140838;-64
2022/11/21 10:15:46;;;;;;;76.17;36.00;;;;;;;-1.39;100.00;99568.79;5124657;56;1140753;-66
2022/11/21 10:21:17;;;;;;;69.47;31.67;;;;;;;-1.37;100.00;99560.91;5138799;56;1141111;-65
2022/11/21 10:26:56;;;;;;;72.80;33.20;;;;;;;-1.39;100.00;99547.20;5151708;56;1140888;-68
2022/11/21 10:32:24;;;;;;;65.47;29.45;;;;;;;-1.36;100.00;99544.44;5152920;56;1141794;-67
2022/11/21 10:37:57;;;;;;;59.40;30.13;;;;;;;-1.32;100.00;99543.41;5138847;55;1140911;-66
2022/11/21 10:49:01;;;;;;;63.68;30.76;;;;;;;-1.26;100.00;99543.14;5121599;56;1140964;-66
2022/11/21 10:59:36;;;;;;;74.10;33.07;;;;;;;-1.03;100.00;99549.87;5136117;56;1141009;-68
2022/11/21 11:04:42;;;;;;;74.47;33.47;;;;;;;-0.95;100.00;99551.22;5138698;55;1141003;-66
2022/11/21 11:09:47;;;;;;;95.43;40.27;;;;;;;-0.95;100.00;99552.97;5138556;55;1141048;-69
2022/11/21 11:14:56;;;;;;;84.57;39.80;;;;;;;-0.89;100.00;99561.75;5073663;56;1141099;-69
2022/11/21 11:20:29;;;;;;;94.72;40.50;;;;;;;-0.81;100.00;99556.61;5101429;56;1141021;-68
2022/11/21 11:25:36;;;;;;;69.40;31.27;;;;;;;-0.75;100.00;99569.73;5078728;55;1140923;-70
2022/11/21 11:30:43;;;;;;;80.60;38.30;;;;;;;-0.75;100.00;99575.77;5053003;57;1141013;-67
2022/11/21 11:35:48;;;;;;;73.40;33.63;;;;;;;-0.82;100.00;99565.30;5133232;55;1141119;-68
2022/11/21 11:40:55;;;;;;;80.57;37.07;;;;;;;-0.85;100.00;99572.38;5135047;55;1140959;-67
2022/11/21 11:51:47;;;;;;;76.67;36.63;;;;;;;-0.74;100.00;99559.74;5139984;55;1140930;-63
2022/11/21 11:56:54;;;;;;;75.50;35.60;;;;;;;-0.74;100.00;99559.74;5139470;55;1141018;-67
2022/11/21 12:02:23;;;;;;;75.60;34.87;;;;;;;-0.76;100.00;99552.02;5112319;55;1140760;-68
2022/11/21 12:07:37;;;;;;;76.37;36.77;;;;;;;-0.75;100.00;99565.39;5136758;55;1141021;-67
2022/11/21 12:12:47;;;;;;;91.53;40.90;;;;;;;-0.76;100.00;99576.68;5137895;55;1141150;-66
2022/11/21 12:18:14;;;;;;;75.93;36.80;;;;;;;-0.71;100.00;99592.06;5151275;55;1141043;-65
2022/11/21 12:23:22;;;;;;;85.53;37.03;;;;;;;-0.69;100.00;99590.23;5106356;55;1141221;-65
2022/11/21 12:28:47;;;;;;;86.97;40.60;;;;;;;-0.66;100.00;99590.09;5153395;56;1140832;-65
2022/11/21 12:34:26;;;;;;;82.47;36.10;;;;;;;-0.65;100.00;99590.48;5153521;56;1140908;-64
2022/11/21 12:39:45;;;;;;;85.77;39.70;;;;;;;-0.65;100.00;99590.48;5141204;56;1141054;-69
2022/11/21 12:44:58;;;;;;;92.57;41.87;;;;;;;-0.73;100.00;99592.13;5108791;56;1140948;-65
2022/11/21 12:55:42;;;;;;;93.50;44.27;;;;;;;-0.68;100.00;99591.08;5137731;56;1140916;-68
2022/11/21 13:01:01;;;;;;;86.17;38.60;;;;;;;-0.63;100.00;99593.02;5137730;56;1140724;-67
2022/11/21 13:06:15;;;;;;;80.83;39.23;;;;;;;-0.67;100.00;99600.09;5067391;56;1140889;-69
2022/11/21 13:17:24;;;;;;;94.45;44.98;;;;;;;-0.70;100.00;99595.05;5138284;56;1141042;-70
2022/11/21 13:22:41;;;;;;;89.13;41.40;;;;;;;-0.68;100.00;99593.67;5119901;56;1140933;-65
2022/11/21 13:27:47;;;;;;;98.05;44.67;;;;;;;-0.69;100.00;99599.33;5138525;56;1140832;-65
2022/11/21 13:32:55;;;;;;;109.60;49.83;;;;;;;-0.77;100.00;99594.50;5138508;56;1141247;-65
2022/11/21 13:38:05;;;;;;;104.07;49.87;;;;;;;-0.69;100.00;99611.46;5137357;56;1143938;-71
2022/11/21 13:43:23;;;;;;;91.97;44.50;;;;;;;-0.65;100.00;99614.31;5154456;56;1143069;-65
2022/11/21 13:49:01;;;;;;;105.83;49.57;;;;;;;-0.64;100.00;99619.44;5152957;56;1141038;-67
2022/11/21 13:54:49;;;;;;;102.82;48.05;;;;;;;-0.65;100.00;99625.54;5154197;56;1143024;-66
2022/11/21 14:00:18;;;;;;;111.70;51.23;;;;;;;-0.62;100.00;99634.49;5069950;56;1143137;-67
2022/11/21 14:05:47;;;;;;;117.17;54.27;;;;;;;-0.62;100.00;99636.25;5065917;56;1142995;-70
2022/11/21 14:10:55;;;;;;;127.90;56.33;;;;;;;-0.66;100.00;99634.70;5060814;56;1143182;-66
2022/11/21 14:16:33;;;;;;;129.95;58.38;;;;;;;-0.64;100.00;99640.20;5169749;56;1143017;-68
2022/11/21 14:21:39;;;;;;;126.07;57.13;;;;;;;-0.65;100.00;99642.41;5077004;55;1143064;-70
2022/11/21 14:26:51;;;;;;;135.75;60.55;;;;;;;-0.63;100.00;99651.44;5066346;56;1142879;-65
2022/11/21 14:31:57;;;;;;;128.57;57.77;;;;;;;-0.65;100.00;99645.02;5065275;56;1142991;-64
2022/11/21 14:37:06;;;;;;;138.67;58.10;;;;;;;-0.61;100.00;99649.62;5042657;57;1143038;-65
2022/11/21 14:42:16;;;;;;;111.88;46.68;;;;;;;-0.57;100.00;99662.83;5020558;57;1142983;-71
2022/11/21 14:47:22;;;;;;;125.47;54.00;;;;;;;-0.65;100.00;99669.68;4975429;58;1142982;-67
2022/11/21 14:52:33;;;;;;;134.47;58.47;;;;;;;-0.71;100.00;99679.03;4975580;58;1142797;-70
2022/11/21 14:57:42;;;;;;;135.17;60.90;;;;;;;-0.73;100.00;99683.45;4975374;58;1142987;-65
2022/11/21 15:02:47;;;;;;;143.17;57.07;;;;;;;-0.77;100.00;99691.01;5065603;56;1143074;-66
2022/11/21 15:07:53;;;;;;;146.23;59.53;;;;;;;-0.78;100.00;99688.02;5028820;56;1143475;-64
2022/11/21 15:13:11;;;;;;;130.30;56.85;;;;;;;-0.79;100.00;99691.08;5066126;55;1143298;-68
2022/11/21 15:18:26;;;;;;;161.43;82.08;;;;;;;-0.80;100.00;99686.79;5080562;56;1143382;-65
2022/11/21 15:23:39;;;;;;;151.67;62.60;;;;;;;-0.79;100.00;99693.67;5066872;56;1143077;-65
2022/11/21 15:28:54;;;;;;;136.63;60.80;;;;;;;-0.79;100.00;99691.53;5064110;56;1143070;-66
2022/11/21 15:34:06;;;;;;;145.30;59.57;;;;;;;-0.83;100.00;99677.83;5061482;56;1142941;-69
2022/11/21 15:39:16;;;;;;;125.33;54.50;;;;;;;-0.86;100.00;99681.86;5064968;56;1143220;-64
2022/11/21 15:44:24;;;;;;;127.37;54.53;;;;;;;-0.88;100.00;99691.46;5080737;55;1143224;-65
2022/11/21 15:49:29;;;;;;;127.57;54.17;;;;;;;-0.85;100.00;99689.19;5073285;56;1143012;-68
2022/11/21 15:54:35;;;;;;;145.23;64.63;;;;;;;-0.82;100.00;99686.47;5085602;55;1143061;-66
2022/11/21 15:59:41;;;;;;;149.00;61.03;;;;;;;-0.86;100.00;99684.45;5098131;56;1143072;-67
2022/11/21 16:04:47;;;;;;;129.77;58.80;;;;;;;-0.83;100.00;99680.89;5063038;55;1143086;-68
2022/11/21 16:09:54;;;;;;;139.90;59.37;;;;;;;-0.80;100.00;99679.45;5088721;55;1143068;-69
2022/11/21 16:15:00;;;;;;;131.93;53.57;;;;;;;-0.78;100.00;99675.89;5133033;56;1142979;-70
2022/11/21 16:20:07;;;;;;;138.20;58.60;;;;;;;-0.79;100.00;99671.61;5149382;56;1250105;-64
2022/11/21 16:25:12;;;;;;;195.53;69.77;;;;;;;-0.75;100.00;99674.42;5151036;56;1142961;-66
2022/11/21 16:30:18;;;;;;;155.37;61.53;;;;;;;-0.77;100.00;99677.58;5097836;56;1143074;-68
2022/11/21 16:35:24;;;;;;;152.30;65.60;;;;;;;-0.77;100.00;99684.06;5114768;55;1143134;-65
2022/11/21 16:40:30;;;;;;;145.47;62.13;;;;;;;-0.77;100.00;99678.88;5115048;55;1142892;-64
2022/11/21 16:45:37;;;;;;;154.10;62.70;;;;;;;-0.69;100.00;99680.27;5118637;55;1143035;-68
2022/11/21 16:50:43;;;;;;;133.70;53.30;;;;;;;-0.70;100.00;99676.83;5123432;56;1143114;-69
2022/11/21 16:55:49;;;;;;;125.87;50.03;;;;;;;-0.76;100.00;99681.83;5104086;56;1143267;-68
2022/11/21 17:00:56;;;;;;;126.27;52.80;;;;;;;-0.84;100.00;99685.69;5143971;56;1142912;-67
2022/11/21 17:06:02;;;;;;;129.23;54.83;;;;;;;-0.90;100.00;99688.54;5109163;55;1143061;-67
2022/11/21 17:11:21;;;;;;;135.03;58.10;;;;;;;-0.96;100.00;99689.67;5111836;55;1143427;-65
2022/11/21 17:16:27;;;;;;;139.00;59.20;;;;;;;-0.95;100.00;99690.06;5122718;56;1143169;-68
2022/11/21 17:21:33;;;;;;;155.80;62.67;;;;;;;-0.86;100.00;99687.05;5111773;55;1143096;-65
2022/11/21 17:26:39;;;;;;;143.60;63.13;;;;;;;-0.82;100.00;99695.55;5124076;56;1143109;-69
2022/11/21 17:31:45;;;;;;;164.80;68.85;;;;;;;-0.77;100.00;99695.75;5107570;56;1143079;-68
2022/11/21 17:36:52;;;;;;;170.80;71.33;;;;;;;-0.76;100.00;99694.80;5076313;55;1142948;-65
2022/11/21 17:41:58;;;;;;;166.13;70.63;;;;;;;-0.69;100.00;99702.33;5065575;55;1142878;-67
2022/11/21 17:47:04;;;;;;;168.60;68.47;;;;;;;-0.75;100.00;99706.88;5083032;56;1143115;-65
2022/11/21 17:52:10;;;;;;;147.05;58.85;;;;;;;-0.80;100.00;99714.50;5107709;55;1143346;-63
2022/11/21 17:57:16;;;;;;;123.82;48.25;;;;;;;-0.82;100.00;99709.38;5064665;55;1142881;-67
2022/11/21 18:02:24;;;;;;;94.50;35.03;;;;;;;-0.87;100.00;99711.77;5121878;55;1143061;-66
2022/11/21 18:07:30;;;;;;;72.33;29.30;;;;;;;-0.97;100.00;99713.94;5119125;56;1140928;-68
2022/11/21 18:12:36;;;;;;;104.10;38.73;;;;;;;-1.08;100.00;99726.09;5116029;56;1140826;-64
2022/11/21 18:17:41;;;;;;;94.80;37.37;;;;;;;-1.20;100.00;99726.58;5123366;56;1142865;-67
2022/11/21 18:22:48;;;;;;;101.97;44.10;;;;;;;-1.22;100.00;99723.69;5099252;56;1141033;-63
2022/11/21 18:27:53;;;;;;;104.77;40.83;;;;;;;-1.25;100.00;99724.66;5094100;56;1142908;-64
2022/11/21 18:32:59;;;;;;;117.23;40.40;;;;;;;-1.15;100.00;99728.54;5116073;55;1142795;-64
2022/11/21 18:38:04;;;;;;;102.03;39.70;;;;;;;-1.06;100.00;99731.18;5115717;56;1143102;-67
2022/11/21 18:43:11;;;;;;;111.27;45.83;;;;;;;-1.00;100.00;99714.52;5120897;55;1143175;-68
2022/11/21 18:48:17;;;;;;;114.97;49.17;;;;;;;-1.00;100.00;99714.52;5114509;56;1142907;-68
2022/11/21 18:53:22;;;;;;;139.18;55.35;;;;;;;-0.92;100.00;99718.94;5110898;56;1142894;-68
2022/11/21 18:58:28;;;;;;;75.87;32.87;;;;;;;-0.92;100.00;99721.53;5100256;56;1142887;-65
2022/11/21 19:03:34;;;;;;;82.87;34.43;;;;;;;-0.97;100.00;99732.56;5104959;56;1140952;-66
2022/11/21 19:08:41;;;;;;;103.67;42.40;;;;;;;-1.06;100.00;99742.41;5121198;56;1140903;-63
2022/11/21 19:13:48;;;;;;;84.65;37.30;;;;;;;-1.10;100.00;99742.17;5108759;56;1143023;-65
2022/11/21 19:18:54;;;;;;;77.97;37.40;;;;;;;-1.08;100.00;99749.44;5055460;56;1141012;-68
2022/11/21 19:24:00;;;;;;;48.28;20.40;;;;;;;-1.04;100.00;99759.21;5139381;56;1140919;-66
2022/11/21 19:29:06;;;;;;;79.93;30.97;;;;;;;-0.98;100.00;99760.72;5138858;56;1141105;-66
2022/11/21 19:34:13;;;;;;;61.10;26.87;;;;;;;-0.97;100.00;99758.06;5139258;56;1140956;-66
2022/11/21 19:39:19;;;;;;;85.80;32.93;;;;;;;-1.00;100.00;99751.69;5062982;55;1141043;-68
2022/11/21 19:44:25;;;;;;;72.03;28.67;;;;;;;-1.10;100.00;99759.48;5055426;56;1141062;-64
2022/11/21 19:49:30;;;;;;;79.97;34.10;;;;;;;-1.14;100.00;99754.03;5070772;55;1140934;-69
2022/11/21 19:54:38;;;;;;;42.55;17.62;;;;;;;-1.18;100.00;99756.36;5057320;56;1141073;-62
2022/11/21 19:59:43;;;;;;;49.83;19.50;;;;;;;-1.20;100.00;99755.57;5050139;57;1141140;-67
2022/11/21 20:04:50;;;;;;;48.90;22.53;;;;;;;-1.25;100.00;99753.19;5123207;55;1140946;-66
2022/11/21 20:09:56;;;;;;;71.13;29.73;;;;;;;-1.26;100.00;99765.77;5137159;56;1140927;-70
2022/11/21 20:15:02;;;;;;;64.83;29.93;;;;;;;-1.20;100.00;99760.31;5038861;57;1141041;-66
2022/11/21 20:20:09;;;;;;;67.00;28.47;;;;;;;-1.12;100.00;99758.70;5127831;56;1140988;-67
2022/11/21 20:25:15;;;;;;;61.35;27.45;;;;;;;-1.08;100.00;99753.33;5104010;55;1141152;-65
2022/11/21 20:30:23;;;;;;;60.45;27.37;;;;;;;-1.05;100.00;99749.73;5055784;56;1140961;-67
2022/11/21 20:35:27;;;;;;;72.70;30.27;;;;;;;-0.97;100.00;99749.42;5106341;54;1141051;-64
2022/11/21 20:40:33;;;;;;;105.00;46.33;;;;;;;-0.87;100.00;99742.47;5106734;56;1141113;-65
2022/11/21 20:45:39;;;;;;;80.63;35.23;;;;;;;-0.80;100.00;99751.69;5057572;55;1143087;-65
2022/11/21 20:50:53;;;;;;;62.63;28.53;;;;;;;-0.71;100.00;99745.23;5055607;56;1140939;-67
2022/11/21 20:56:10;;;;;;;62.80;29.73;;;;;;;-0.65;100.00;99743.69;5103703;55;1141148;-71
2022/11/21 21:01:19;;;;;;;61.05;26.23;;;;;;;-0.65;100.00;99743.69;5099797;56;1140977;-68
2022/11/21 21:06:27;;;;;;;105.60;48.77;;;;;;;-0.65;100.00;99738.95;5065614;55;1141077;-66
2022/11/21 21:11:32;;;;;;;59.27;24.80;;;;;;;-0.69;100.00;99750.36;5138397;56;1143227;-64
2022/11/21 21:16:38;;;;;;;42.23;20.57;;;;;;;-0.75;100.00;99740.63;5139730;56;1140910;-65
2022/11/21 21:21:44;;;;;;;53.33;23.97;;;;;;;-0.81;100.00;99742.22;5139661;56;1140900;-68
2022/11/21 21:26:50;;;;;;;49.00;23.07;;;;;;;-0.77;100.00;99743.77;5121649;55;1141271;-69
2022/11/21 21:31:56;;;;;;;87.77;38.13;;;;;;;-0.83;100.00;99740.59;5106074;56;1140887;-66
2022/11/21 21:37:01;;;;;;;93.33;34.90;;;;;;;-0.86;100.00;99733.77;5138051;56;1192301;-67
2022/11/21 21:42:07;;;;;;;90.57;37.47;;;;;;;-0.90;100.00;99745.19;5119525;56;1215167;-66
2022/11/21 21:47:14;;;;;;;50.37;24.10;;;;;;;-0.93;100.00;99740.16;5151946;56;1220614;-63
2022/11/21 21:52:20;;;;;;;36.17;17.17;;;;;;;-0.97;100.00;99732.10;5152202;56;1140852;-65
2022/11/21 21:57:25;;;;;;;27.67;15.00;;;;;;;-0.96;100.00;99735.09;5139571;55;1140972;-69
2022/11/21 22:02:31;;;;;;;30.27;14.40;;;;;;;-0.96;100.00;99736.84;5139336;54;1140972;-67
2022/11/21 22:07:37;;;;;;;22.20;11.53;;;;;;;-0.96;100.00;99722.11;5139387;55;1140914;-66
2022/11/21 22:12:43;;;;;;;29.17;14.20;;;;;;;-1.00;100.00;99723.59;5125014;55;1140824;-69
2022/11/21 22:17:48;;;;;;;20.57;10.27;;;;;;;-1.06;100.00;99724.24;5098473;56;1140999;-65
2022/11/21 22:22:54;;;;;;;27.60;13.20;;;;;;;-1.11;100.00;99721.02;5139111;56;1140919;-68
2022/11/21 22:27:59;;;;;;;36.83;18.13;;;;;;;-1.13;100.00;99734.51;5094454;56;1140756;-67
2022/11/21 22:33:05;;;;;;;39.83;18.93;;;;;;;-1.16;100.00;99739.83;5135611;56;1140803;-66
2022/11/21 22:38:13;;;;;;;32.57;16.70;;;;;;;-1.21;100.00;99740.45;5082225;56;1140932;-66
2022/11/21 22:43:18;;;;;;;40.10;18.00;;;;;;;-1.22;100.00;99736.17;5055486;55;1140909;-69
2022/11/21 22:48:25;;;;;;;42.38;17.17;;;;;;;-1.20;100.00;99731.77;5055215;56;1140900;-69
2022/11/21 22:53:30;;;;;;;36.23;16.00;;;;;;;-1.20;100.00;99713.61;5055259;55;1140985;-68
2022/11/21 22:58:40;;;;;;;57.30;22.63;;;;;;;-1.26;100.00;99710.45;5054848;56;1140784;-67
2022/11/21 23:03:46;;;;;;;42.87;22.07;;;;;;;-1.29;100.00;99710.13;5055606;55;1140799;-66
2022/11/21 23:08:54;;;;;;;54.77;23.80;;;;;;;-1.33;100.00;99728.01;5054872;56;1141026;-65
2022/11/21 23:14:00;;;;;;;52.10;24.17;;;;;;;-1.35;100.00;99728.97;5055497;55;1140842;-67
2022/11/21 23:19:05;;;;;;;64.97;28.85;;;;;;;-1.39;100.00;99725.69;5054695;56;1141067;-65
2022/11/21 23:24:12;;;;;;;65.60;29.12;;;;;;;-1.38;100.00;99733.02;5049317;55;1140909;-67